sensor_id;sensor_type;location;lat;lon;timestamp;temperature;humidity
44729;DHT22;30457;53.590;9.922;2024-02-28T00:01:12;8.80;55.80
44729;DHT22;30457;53.590;9.922;2024-02-28T00:05:37;8.80;55.70
44729;DHT22;30457;53.590;9.922;2024-02-28T00:10:04;8.70;56.00
44729;DHT22;30457;53.590;9.922;2024-02-28T00:14:29;8.70;56.20
44729;DHT22;30457;53.590;9.922;2024-02-28T00:18:55;8.70;56.20
44729;DHT22;30457;53.590;9.922;2024-02-28T00:23:21;8.70;56.20
44729;DHT22;30457;53.590;9.922;2024-02-28T00:27:46;8.70;56.20
44729;DHT22;30457;53.590;9.922;2024-02-28T00:32:12;8.60;56.30
44729;DHT22;30457;53.590;9.922;2024-02-28T00:36:37;8.70;56.20
44729;DHT22;30457;53.590;9.922;2024-02-28T00:41:03;8.60;55.80
44729;DHT22;30457;53.590;9.922;2024-02-28T00:45:28;8.60;55.80
44729;DHT22;30457;53.590;9.922;2024-02-28T00:49:54;8.50;56.00
44729;DHT22;30457;53.590;9.922;2024-02-28T00:54:19;8.50;55.80
44729;DHT22;30457;53.590;9.922;2024-02-28T00:58:47;8.50;56.00
44729;DHT22;30457;53.590;9.922;2024-02-28T01:03:12;8.50;56.10
44729;DHT22;30457;53.590;9.922;2024-02-28T01:07:40;8.50;56.10
44729;DHT22;30457;53.590;9.922;2024-02-28T01:12:05;8.50;55.90
44729;DHT22;30457;53.590;9.922;2024-02-28T01:16:31;8.40;55.90
44729;DHT22;30457;53.590;9.922;2024-02-28T01:20:56;8.40;56.10
44729;DHT22;30457;53.590;9.922;2024-02-28T01:25:22;8.40;56.00
44729;DHT22;30457;53.590;9.922;2024-02-28T01:29:47;8.40;55.90
44729;DHT22;30457;53.590;9.922;2024-02-28T01:34:13;8.40;55.90
44729;DHT22;30457;53.590;9.922;2024-02-28T01:38:39;8.30;55.90
44729;DHT22;30457;53.590;9.922;2024-02-28T01:43:07;8.30;56.00
44729;DHT22;30457;53.590;9.922;2024-02-28T01:47:33;8.30;55.70
44729;DHT22;30457;53.590;9.922;2024-02-28T01:51:59;8.20;55.80
44729;DHT22;30457;53.590;9.922;2024-02-28T01:56:25;8.20;56.10
44729;DHT22;30457;53.590;9.922;2024-02-28T02:00:51;8.20;56.10
44729;DHT22;30457;53.590;9.922;2024-02-28T02:05:17;8.20;56.00
44729;DHT22;30457;53.590;9.922;2024-02-28T02:09:46;8.10;55.90
44729;DHT22;30457;53.590;9.922;2024-02-28T02:14:11;8.10;56.00
44729;DHT22;30457;53.590;9.922;2024-02-28T02:18:38;8.10;56.10
44729;DHT22;30457;53.590;9.922;2024-02-28T02:23:04;8.10;56.00
44729;DHT22;30457;53.590;9.922;2024-02-28T02:27:30;8.00;56.10
44729;DHT22;30457;53.590;9.922;2024-02-28T02:31:55;8.00;56.20
44729;DHT22;30457;53.590;9.922;2024-02-28T02:36:21;8.00;56.10
44729;DHT22;30457;53.590;9.922;2024-02-28T02:40:50;7.90;56.10
44729;DHT22;30457;53.590;9.922;2024-02-28T02:45:16;7.90;56.20
44729;DHT22;30457;53.590;9.922;2024-02-28T02:49:42;7.90;56.40
44729;DHT22;30457;53.590;9.922;2024-02-28T02:54:07;7.90;56.40
44729;DHT22;30457;53.590;9.922;2024-02-28T02:58:33;7.90;56.40
44729;DHT22;30457;53.590;9.922;2024-02-28T03:02:59;7.90;56.30
44729;DHT22;30457;53.590;9.922;2024-02-28T03:07:24;7.90;56.40
44729;DHT22;30457;53.590;9.922;2024-02-28T03:11:50;7.90;56.40
44729;DHT22;30457;53.590;9.922;2024-02-28T03:16:15;7.90;56.30
44729;DHT22;30457;53.590;9.922;2024-02-28T03:20:41;7.90;56.40
44729;DHT22;30457;53.590;9.922;2024-02-28T03:25:07;7.90;56.50
44729;DHT22;30457;53.590;9.922;2024-02-28T03:29:32;7.90;56.60
44729;DHT22;30457;53.590;9.922;2024-02-28T03:33:58;7.90;56.70
44729;DHT22;30457;53.590;9.922;2024-02-28T03:38:23;7.90;56.60
44729;DHT22;30457;53.590;9.922;2024-02-28T03:42:49;7.90;56.70
44729;DHT22;30457;53.590;9.922;2024-02-28T03:47:15;8.00;56.80
44729;DHT22;30457;53.590;9.922;2024-02-28T03:51:40;8.00;56.60
44729;DHT22;30457;53.590;9.922;2024-02-28T03:56:06;8.00;56.60
44729;DHT22;30457;53.590;9.922;2024-02-28T04:00:32;8.00;56.50
44729;DHT22;30457;53.590;9.922;2024-02-28T04:04:58;8.00;56.50
44729;DHT22;30457;53.590;9.922;2024-02-28T04:09:23;8.00;56.40
44729;DHT22;30457;53.590;9.922;2024-02-28T04:13:49;8.00;56.40
44729;DHT22;30457;53.590;9.922;2024-02-28T04:18:14;8.00;56.30
44729;DHT22;30457;53.590;9.922;2024-02-28T04:22:40;8.00;56.20
44729;DHT22;30457;53.590;9.922;2024-02-28T04:27:06;8.00;56.30
44729;DHT22;30457;53.590;9.922;2024-02-28T04:31:31;8.00;56.30
44729;DHT22;30457;53.590;9.922;2024-02-28T04:35:57;8.00;56.40
44729;DHT22;30457;53.590;9.922;2024-02-28T04:40:23;8.00;56.60
44729;DHT22;30457;53.590;9.922;2024-02-28T04:44:48;8.00;56.70
44729;DHT22;30457;53.590;9.922;2024-02-28T04:49:14;8.00;56.60
44729;DHT22;30457;53.590;9.922;2024-02-28T04:53:39;8.00;56.40
44729;DHT22;30457;53.590;9.922;2024-02-28T04:58:05;8.00;56.20
44729;DHT22;30457;53.590;9.922;2024-02-28T05:02:31;8.00;56.30
44729;DHT22;30457;53.590;9.922;2024-02-28T05:06:56;8.00;56.40
44729;DHT22;30457;53.590;9.922;2024-02-28T05:11:22;8.00;56.50
44729;DHT22;30457;53.590;9.922;2024-02-28T05:15:48;7.90;56.50
44729;DHT22;30457;53.590;9.922;2024-02-28T05:20:13;7.90;56.50
44729;DHT22;30457;53.590;9.922;2024-02-28T05:24:39;7.90;56.70
44729;DHT22;30457;53.590;9.922;2024-02-28T05:29:05;7.90;56.80
44729;DHT22;30457;53.590;9.922;2024-02-28T05:33:31;7.90;57.00
44729;DHT22;30457;53.590;9.922;2024-02-28T05:37:56;7.90;57.10
44729;DHT22;30457;53.590;9.922;2024-02-28T05:42:22;8.00;57.10
44729;DHT22;30457;53.590;9.922;2024-02-28T05:46:48;8.00;57.20
44729;DHT22;30457;53.590;9.922;2024-02-28T05:51:14;8.00;57.20
44729;DHT22;30457;53.590;9.922;2024-02-28T05:55:39;8.00;57.30
44729;DHT22;30457;53.590;9.922;2024-02-28T06:00:05;8.00;57.30
44729;DHT22;30457;53.590;9.922;2024-02-28T06:04:36;8.00;57.20
44729;DHT22;30457;53.590;9.922;2024-02-28T06:09:02;8.00;57.20
44729;DHT22;30457;53.590;9.922;2024-02-28T06:13:28;8.10;57.30
44729;DHT22;30457;53.590;9.922;2024-02-28T06:17:57;8.10;57.30
44729;DHT22;30457;53.590;9.922;2024-02-28T06:22:22;8.10;57.30
44729;DHT22;30457;53.590;9.922;2024-02-28T06:26:48;8.10;57.50
44729;DHT22;30457;53.590;9.922;2024-02-28T06:31:15;8.10;57.50
44729;DHT22;30457;53.590;9.922;2024-02-28T06:35:41;8.10;57.60
44729;DHT22;30457;53.590;9.922;2024-02-28T06:40:07;8.10;57.50
44729;DHT22;30457;53.590;9.922;2024-02-28T06:44:34;8.20;57.50
44729;DHT22;30457;53.590;9.922;2024-02-28T06:48:59;8.20;57.50
44729;DHT22;30457;53.590;9.922;2024-02-28T06:53:25;8.20;57.60
44729;DHT22;30457;53.590;9.922;2024-02-28T06:57:51;8.20;57.60
44729;DHT22;30457;53.590;9.922;2024-02-28T07:02:17;8.20;57.60
44729;DHT22;30457;53.590;9.922;2024-02-28T07:06:42;8.20;57.70
44729;DHT22;30457;53.590;9.922;2024-02-28T07:11:14;8.30;57.70
44729;DHT22;30457;53.590;9.922;2024-02-28T07:15:40;8.30;57.80
44729;DHT22;30457;53.590;9.922;2024-02-28T07:20:07;8.30;57.80
44729;DHT22;30457;53.590;9.922;2024-02-28T07:24:32;8.30;57.90
44729;DHT22;30457;53.590;9.922;2024-02-28T07:28:58;8.40;58.00
44729;DHT22;30457;53.590;9.922;2024-02-28T07:33:23;8.40;57.90
44729;DHT22;30457;53.590;9.922;2024-02-28T07:37:49;8.50;58.00
44729;DHT22;30457;53.590;9.922;2024-02-28T07:42:15;8.50;57.90
44729;DHT22;30457;53.590;9.922;2024-02-28T07:46:43;8.50;57.80
44729;DHT22;30457;53.590;9.922;2024-02-28T07:51:09;8.50;57.90
44729;DHT22;30457;53.590;9.922;2024-02-28T07:55:35;8.60;57.90
44729;DHT22;30457;53.590;9.922;2024-02-28T08:00:00;8.70;58.00
44729;DHT22;30457;53.590;9.922;2024-02-28T08:04:26;8.70;58.00
44729;DHT22;30457;53.590;9.922;2024-02-28T08:08:52;8.70;57.90
44729;DHT22;30457;53.590;9.922;2024-02-28T08:13:17;8.80;58.00
44729;DHT22;30457;53.590;9.922;2024-02-28T08:17:43;8.80;58.00
44729;DHT22;30457;53.590;9.922;2024-02-28T08:22:08;8.90;58.00
44729;DHT22;30457;53.590;9.922;2024-02-28T08:26:34;8.90;58.20
44729;DHT22;30457;53.590;9.922;2024-02-28T08:31:01;9.00;58.40
44729;DHT22;30457;53.590;9.922;2024-02-28T08:35:26;9.10;58.30
44729;DHT22;30457;53.590;9.922;2024-02-28T08:39:52;9.20;58.10
44729;DHT22;30457;53.590;9.922;2024-02-28T08:44:17;9.20;58.20
44729;DHT22;30457;53.590;9.922;2024-02-28T08:48:43;9.30;58.10
44729;DHT22;30457;53.590;9.922;2024-02-28T08:53:09;9.40;58.10
44729;DHT22;30457;53.590;9.922;2024-02-28T08:57:34;9.50;58.20
44729;DHT22;30457;53.590;9.922;2024-02-28T09:02:00;9.60;58.40
44729;DHT22;30457;53.590;9.922;2024-02-28T09:06:25;9.70;58.50
44729;DHT22;30457;53.590;9.922;2024-02-28T09:10:52;9.90;58.30
44729;DHT22;30457;53.590;9.922;2024-02-28T09:15:18;10.20;57.40
44729;DHT22;30457;53.590;9.922;2024-02-28T09:19:43;10.20;57.80
44729;DHT22;30457;53.590;9.922;2024-02-28T09:24:09;10.30;57.70
44729;DHT22;30457;53.590;9.922;2024-02-28T09:28:34;10.40;57.50
44729;DHT22;30457;53.590;9.922;2024-02-28T09:33:00;10.50;57.80
44729;DHT22;30457;53.590;9.922;2024-02-28T09:37:25;10.50;57.30
44729;DHT22;30457;53.590;9.922;2024-02-28T09:41:51;10.60;57.40
44729;DHT22;30457;53.590;9.922;2024-02-28T09:46:16;10.70;57.50
44729;DHT22;30457;53.590;9.922;2024-02-28T09:50:42;10.80;57.30
44729;DHT22;30457;53.590;9.922;2024-02-28T09:55:08;10.90;57.10
44729;DHT22;30457;53.590;9.922;2024-02-28T09:59:34;11.00;56.70
44729;DHT22;30457;53.590;9.922;2024-02-28T10:04:01;11.10;56.50
44729;DHT22;30457;53.590;9.922;2024-02-28T10:08:27;11.10;56.50
44729;DHT22;30457;53.590;9.922;2024-02-28T10:12:54;11.20;56.70
44729;DHT22;30457;53.590;9.922;2024-02-28T10:17:20;11.30;56.80
44729;DHT22;30457;53.590;9.922;2024-02-28T10:21:46;11.40;56.40
44729;DHT22;30457;53.590;9.922;2024-02-28T10:26:12;11.50;56.30
44729;DHT22;30457;53.590;9.922;2024-02-28T10:30:41;11.50;56.30
44729;DHT22;30457;53.590;9.922;2024-02-28T10:35:07;11.60;56.00
44729;DHT22;30457;53.590;9.922;2024-02-28T10:39:34;11.70;56.10
44729;DHT22;30457;53.590;9.922;2024-02-28T10:44:00;11.80;56.30
44729;DHT22;30457;53.590;9.922;2024-02-28T10:48:27;11.80;55.70
44729;DHT22;30457;53.590;9.922;2024-02-28T10:52:53;11.90;56.20
44729;DHT22;30457;53.590;9.922;2024-02-28T10:57:20;12.10;56.30
44729;DHT22;30457;53.590;9.922;2024-02-28T11:01:47;12.20;56.20
44729;DHT22;30457;53.590;9.922;2024-02-28T11:06:20;12.40;56.40
44729;DHT22;30457;53.590;9.922;2024-02-28T11:10:46;12.50;56.00
44729;DHT22;30457;53.590;9.922;2024-02-28T11:15:17;12.70;56.00
44729;DHT22;30457;53.590;9.922;2024-02-28T11:19:43;12.80;54.50
44729;DHT22;30457;53.590;9.922;2024-02-28T11:24:08;12.80;55.10
44729;DHT22;30457;53.590;9.922;2024-02-28T11:28:38;12.90;54.70
44729;DHT22;30457;53.590;9.922;2024-02-28T11:33:03;12.90;53.90
44729;DHT22;30457;53.590;9.922;2024-02-28T11:37:30;12.90;54.50
44729;DHT22;30457;53.590;9.922;2024-02-28T11:42:09;12.90;54.60
44729;DHT22;30457;53.590;9.922;2024-02-28T11:46:35;12.90;54.20
44729;DHT22;30457;53.590;9.922;2024-02-28T11:51:01;12.90;53.80
44729;DHT22;30457;53.590;9.922;2024-02-28T11:55:26;12.90;53.70
44729;DHT22;30457;53.590;9.922;2024-02-28T11:59:52;12.90;54.00
44729;DHT22;30457;53.590;9.922;2024-02-28T12:04:17;12.80;54.00
44729;DHT22;30457;53.590;9.922;2024-02-28T12:08:43;12.80;54.10
44729;DHT22;30457;53.590;9.922;2024-02-28T12:13:10;12.80;54.00
44729;DHT22;30457;53.590;9.922;2024-02-28T12:17:36;12.70;54.20
44729;DHT22;30457;53.590;9.922;2024-02-28T12:22:02;12.70;54.40
44729;DHT22;30457;53.590;9.922;2024-02-28T12:26:29;12.70;54.30
44729;DHT22;30457;53.590;9.922;2024-02-28T12:30:55;12.70;54.30
44729;DHT22;30457;53.590;9.922;2024-02-28T12:35:20;12.70;54.00
44729;DHT22;30457;53.590;9.922;2024-02-28T12:39:46;12.60;53.90
44729;DHT22;30457;53.590;9.922;2024-02-28T12:44:13;12.60;54.50
44729;DHT22;30457;53.590;9.922;2024-02-28T12:48:39;12.60;54.60
44729;DHT22;30457;53.590;9.922;2024-02-28T12:53:05;12.60;54.70
44729;DHT22;30457;53.590;9.922;2024-02-28T12:57:31;12.60;54.60
44729;DHT22;30457;53.590;9.922;2024-02-28T13:01:56;12.60;54.60
44729;DHT22;30457;53.590;9.922;2024-02-28T13:06:22;12.70;54.50
44729;DHT22;30457;53.590;9.922;2024-02-28T13:10:48;12.70;54.30
44729;DHT22;30457;53.590;9.922;2024-02-28T13:15:13;12.70;54.40
44729;DHT22;30457;53.590;9.922;2024-02-28T13:19:39;12.70;54.50
44729;DHT22;30457;53.590;9.922;2024-02-28T13:24:05;12.70;54.20
44729;DHT22;30457;53.590;9.922;2024-02-28T13:28:31;12.70;54.20
44729;DHT22;30457;53.590;9.922;2024-02-28T13:32:56;12.60;54.30
44729;DHT22;30457;53.590;9.922;2024-02-28T13:37:22;12.60;54.40
44729;DHT22;30457;53.590;9.922;2024-02-28T13:41:48;12.60;54.50
44729;DHT22;30457;53.590;9.922;2024-02-28T13:46:16;12.70;54.70
44729;DHT22;30457;53.590;9.922;2024-02-28T13:50:45;12.70;54.90
44729;DHT22;30457;53.590;9.922;2024-02-28T13:55:10;12.70;55.10
44729;DHT22;30457;53.590;9.922;2024-02-28T13:59:36;12.70;55.10
44729;DHT22;30457;53.590;9.922;2024-02-28T14:04:02;12.80;55.10
44729;DHT22;30457;53.590;9.922;2024-02-28T14:08:28;12.80;55.00
44729;DHT22;30457;53.590;9.922;2024-02-28T14:12:54;12.80;55.10
44729;DHT22;30457;53.590;9.922;2024-02-28T14:17:19;12.80;55.10
44729;DHT22;30457;53.590;9.922;2024-02-28T14:21:45;12.80;55.00
44729;DHT22;30457;53.590;9.922;2024-02-28T14:26:11;12.80;55.10
44729;DHT22;30457;53.590;9.922;2024-02-28T14:30:36;12.80;55.20
44729;DHT22;30457;53.590;9.922;2024-02-28T14:35:03;12.80;55.30
44729;DHT22;30457;53.590;9.922;2024-02-28T14:39:30;12.90;55.40
44729;DHT22;30457;53.590;9.922;2024-02-28T14:43:55;12.80;55.30
44729;DHT22;30457;53.590;9.922;2024-02-28T14:48:21;12.80;55.20
44729;DHT22;30457;53.590;9.922;2024-02-28T14:52:47;12.80;55.30
44729;DHT22;30457;53.590;9.922;2024-02-28T14:57:13;12.70;55.20
44729;DHT22;30457;53.590;9.922;2024-02-28T15:01:39;12.70;55.20
44729;DHT22;30457;53.590;9.922;2024-02-28T15:06:04;12.70;55.40
44729;DHT22;30457;53.590;9.922;2024-02-28T15:10:30;12.60;55.50
44729;DHT22;30457;53.590;9.922;2024-02-28T15:14:55;12.60;55.60
44729;DHT22;30457;53.590;9.922;2024-02-28T15:19:21;12.60;55.50
44729;DHT22;30457;53.590;9.922;2024-02-28T15:23:46;12.60;55.50
44729;DHT22;30457;53.590;9.922;2024-02-28T15:28:14;12.60;55.50
44729;DHT22;30457;53.590;9.922;2024-02-28T15:32:40;12.60;55.50
44729;DHT22;30457;53.590;9.922;2024-02-28T15:37:06;12.60;55.50
44729;DHT22;30457;53.590;9.922;2024-02-28T15:41:34;12.60;55.60
44729;DHT22;30457;53.590;9.922;2024-02-28T15:45:59;12.60;55.50
44729;DHT22;30457;53.590;9.922;2024-02-28T15:50:25;12.60;55.50
44729;DHT22;30457;53.590;9.922;2024-02-28T15:54:50;12.60;55.60
44729;DHT22;30457;53.590;9.922;2024-02-28T15:59:16;12.50;55.50
44729;DHT22;30457;53.590;9.922;2024-02-28T16:03:42;12.40;55.50
44729;DHT22;30457;53.590;9.922;2024-02-28T16:08:08;12.40;55.60
44729;DHT22;30457;53.590;9.922;2024-02-28T16:12:34;12.40;55.70
44729;DHT22;30457;53.590;9.922;2024-02-28T16:17:00;12.30;55.80
44729;DHT22;30457;53.590;9.922;2024-02-28T16:21:26;12.30;55.90
44729;DHT22;30457;53.590;9.922;2024-02-28T16:25:52;12.30;55.90
44729;DHT22;30457;53.590;9.922;2024-02-28T16:30:20;12.20;55.90
44729;DHT22;30457;53.590;9.922;2024-02-28T16:34:46;12.20;55.80
44729;DHT22;30457;53.590;9.922;2024-02-28T16:39:12;12.10;55.80
44729;DHT22;30457;53.590;9.922;2024-02-28T16:43:41;12.00;55.70
44729;DHT22;30457;53.590;9.922;2024-02-28T16:48:11;12.00;55.80
44729;DHT22;30457;53.590;9.922;2024-02-28T16:52:37;11.90;55.90
44729;DHT22;30457;53.590;9.922;2024-02-28T16:57:02;11.90;56.00
44729;DHT22;30457;53.590;9.922;2024-02-28T17:01:28;11.80;56.10
44729;DHT22;30457;53.590;9.922;2024-02-28T17:05:54;11.70;56.30
44729;DHT22;30457;53.590;9.922;2024-02-28T17:10:19;11.70;56.30
44729;DHT22;30457;53.590;9.922;2024-02-28T17:14:45;11.70;56.40
44729;DHT22;30457;53.590;9.922;2024-02-28T17:19:11;11.70;56.50
44729;DHT22;30457;53.590;9.922;2024-02-28T17:23:38;11.60;56.40
44729;DHT22;30457;53.590;9.922;2024-02-28T17:28:04;11.60;56.50
44729;DHT22;30457;53.590;9.922;2024-02-28T17:32:30;11.60;56.50
44729;DHT22;30457;53.590;9.922;2024-02-28T17:36:56;11.60;56.50
44729;DHT22;30457;53.590;9.922;2024-02-28T17:41:22;11.50;56.50
44729;DHT22;30457;53.590;9.922;2024-02-28T17:45:47;11.50;56.50
44729;DHT22;30457;53.590;9.922;2024-02-28T17:50:13;11.40;56.60
44729;DHT22;30457;53.590;9.922;2024-02-28T17:54:40;11.40;56.70
44729;DHT22;30457;53.590;9.922;2024-02-28T17:59:06;11.40;56.80
44729;DHT22;30457;53.590;9.922;2024-02-28T18:03:32;11.40;56.80
44729;DHT22;30457;53.590;9.922;2024-02-28T18:07:58;11.30;56.80
44729;DHT22;30457;53.590;9.922;2024-02-28T18:12:24;11.30;56.90
44729;DHT22;30457;53.590;9.922;2024-02-28T18:16:50;11.30;57.00
44729;DHT22;30457;53.590;9.922;2024-02-28T18:21:17;11.30;57.00
44729;DHT22;30457;53.590;9.922;2024-02-28T18:25:43;11.30;57.00
44729;DHT22;30457;53.590;9.922;2024-02-28T18:30:08;11.30;57.00
44729;DHT22;30457;53.590;9.922;2024-02-28T18:34:34;11.30;57.10
44729;DHT22;30457;53.590;9.922;2024-02-28T18:39:00;11.30;57.10
44729;DHT22;30457;53.590;9.922;2024-02-28T18:43:28;11.30;57.70
44729;DHT22;30457;53.590;9.922;2024-02-28T18:47:53;11.30;57.10
44729;DHT22;30457;53.590;9.922;2024-02-28T18:52:19;11.30;57.20
44729;DHT22;30457;53.590;9.922;2024-02-28T18:56:45;11.20;57.20
44729;DHT22;30457;53.590;9.922;2024-02-28T19:01:10;11.20;57.70
44729;DHT22;30457;53.590;9.922;2024-02-28T19:05:36;11.20;57.20
44729;DHT22;30457;53.590;9.922;2024-02-28T19:10:02;11.20;57.20
44729;DHT22;30457;53.590;9.922;2024-02-28T19:14:27;11.20;57.20
44729;DHT22;30457;53.590;9.922;2024-02-28T19:18:53;11.20;57.20
44729;DHT22;30457;53.590;9.922;2024-02-28T19:23:19;11.20;57.20
44729;DHT22;30457;53.590;9.922;2024-02-28T19:27:45;11.20;57.30
44729;DHT22;30457;53.590;9.922;2024-02-28T19:32:10;11.10;57.30
44729;DHT22;30457;53.590;9.922;2024-02-28T19:36:36;11.10;57.30
44729;DHT22;30457;53.590;9.922;2024-02-28T19:41:02;11.10;57.40
44729;DHT22;30457;53.590;9.922;2024-02-28T19:45:27;11.10;57.40
44729;DHT22;30457;53.590;9.922;2024-02-28T19:49:53;11.10;57.40
44729;DHT22;30457;53.590;9.922;2024-02-28T19:54:18;11.10;57.40
44729;DHT22;30457;53.590;9.922;2024-02-28T19:58:45;11.00;57.30
44729;DHT22;30457;53.590;9.922;2024-02-28T20:03:12;11.00;57.30
44729;DHT22;30457;53.590;9.922;2024-02-28T20:07:39;11.00;57.40
44729;DHT22;30457;53.590;9.922;2024-02-28T20:12:05;11.00;57.40
44729;DHT22;30457;53.590;9.922;2024-02-28T20:16:31;10.90;57.40
44729;DHT22;30457;53.590;9.922;2024-02-28T20:20:56;10.90;57.40
44729;DHT22;30457;53.590;9.922;2024-02-28T20:25:24;10.90;57.40
44729;DHT22;30457;53.590;9.922;2024-02-28T20:29:49;10.90;57.30
44729;DHT22;30457;53.590;9.922;2024-02-28T20:34:15;10.80;57.30
44729;DHT22;30457;53.590;9.922;2024-02-28T20:38:40;10.80;57.40
44729;DHT22;30457;53.590;9.922;2024-02-28T20:43:06;10.80;57.30
44729;DHT22;30457;53.590;9.922;2024-02-28T20:47:32;10.70;57.20
44729;DHT22;30457;53.590;9.922;2024-02-28T20:51:57;10.60;57.10
44729;DHT22;30457;53.590;9.922;2024-02-28T20:56:25;10.60;57.10
44729;DHT22;30457;53.590;9.922;2024-02-28T21:00:51;10.60;57.10
44729;DHT22;30457;53.590;9.922;2024-02-28T21:05:19;10.50;57.10
44729;DHT22;30457;53.590;9.922;2024-02-28T21:09:45;10.40;57.00
44729;DHT22;30457;53.590;9.922;2024-02-28T21:14:12;10.30;57.00
44729;DHT22;30457;53.590;9.922;2024-02-28T21:18:38;10.30;57.10
44729;DHT22;30457;53.590;9.922;2024-02-28T21:23:04;10.20;57.30
44729;DHT22;30457;53.590;9.922;2024-02-28T21:27:29;10.20;57.40
44729;DHT22;30457;53.590;9.922;2024-02-28T21:31:55;10.10;57.60
44729;DHT22;30457;53.590;9.922;2024-02-28T21:36:20;10.10;57.80
44729;DHT22;30457;53.590;9.922;2024-02-28T21:40:46;10.10;57.90
44729;DHT22;30457;53.590;9.922;2024-02-28T21:45:12;10.10;57.90
44729;DHT22;30457;53.590;9.922;2024-02-28T21:49:40;10.00;57.70
44729;DHT22;30457;53.590;9.922;2024-02-28T21:54:06;10.00;57.70
44729;DHT22;30457;53.590;9.922;2024-02-28T21:58:32;10.00;57.80
44729;DHT22;30457;53.590;9.922;2024-02-28T22:02:57;10.00;57.80
44729;DHT22;30457;53.590;9.922;2024-02-28T22:07:23;9.90;57.80
44729;DHT22;30457;53.590;9.922;2024-02-28T22:11:48;9.90;57.80
44729;DHT22;30457;53.590;9.922;2024-02-28T22:16:14;9.90;57.90
44729;DHT22;30457;53.590;9.922;2024-02-28T22:20:39;9.90;57.90
44729;DHT22;30457;53.590;9.922;2024-02-28T22:25:05;9.80;57.80
44729;DHT22;30457;53.590;9.922;2024-02-28T22:29:31;9.80;57.70
44729;DHT22;30457;53.590;9.922;2024-02-28T22:33:56;9.80;57.70
44729;DHT22;30457;53.590;9.922;2024-02-28T22:38:22;9.80;57.80
44729;DHT22;30457;53.590;9.922;2024-02-28T22:42:47;9.70;57.90
44729;DHT22;30457;53.590;9.922;2024-02-28T22:47:13;9.70;58.00
44729;DHT22;30457;53.590;9.922;2024-02-28T22:51:38;9.60;58.00
44729;DHT22;30457;53.590;9.922;2024-02-28T22:56:04;9.60;58.00
44729;DHT22;30457;53.590;9.922;2024-02-28T23:00:30;9.60;58.10
44729;DHT22;30457;53.590;9.922;2024-02-28T23:04:57;9.60;58.20
44729;DHT22;30457;53.590;9.922;2024-02-28T23:09:23;9.60;58.30
44729;DHT22;30457;53.590;9.922;2024-02-28T23:13:48;9.60;58.30
44729;DHT22;30457;53.590;9.922;2024-02-28T23:18:14;9.60;58.30
44729;DHT22;30457;53.590;9.922;2024-02-28T23:22:40;9.60;58.30
44729;DHT22;30457;53.590;9.922;2024-02-28T23:27:06;9.60;58.30
44729;DHT22;30457;53.590;9.922;2024-02-28T23:31:32;9.60;58.20
44729;DHT22;30457;53.590;9.922;2024-02-28T23:35:57;9.60;58.00
44729;DHT22;30457;53.590;9.922;2024-02-28T23:40:24;9.60;58.00
44729;DHT22;30457;53.590;9.922;2024-02-28T23:44:50;9.60;57.90
44729;DHT22;30457;53.590;9.922;2024-02-28T23:49:15;9.50;57.90
44729;DHT22;30457;53.590;9.922;2024-02-28T23:53:41;9.50;57.80
44729;DHT22;30457;53.590;9.922;2024-02-28T23:58:07;9.40;57.80
